Time;durP1;ratioP1;P1;durP2;ratioP2;P2;SDS_P1;SDS_P2;PMS_P1;PMS_P2;Temp;Humidity;BMP_temperature;BMP_pressure;BME280_temperature;BME280_humidity;BME280_pressure;Samples;Min_cycle;Max_cycle;Signal;HPM_P1;HPM_P2
2023/03/17 00:01:06;;;;;;;8.45;3.40;;;;;;;;;;5033861;28;20028;-69
2023/03/17 00:03:36;;;;;;;12.70;3.80;;;;;;;;;;5033973;28;20109;-70
2023/03/17 00:06:03;;;;;;;6.65;2.85;;;;;;;;;;5033732;28;20053;-69
2023/03/17 00:08:32;;;;;;;11.05;3.65;;;;;;;;;;5033699;28;20029;-70
2023/03/17 00:10:57;;;;;;;6.10;2.90;;;;;;;;;;5033719;28;20033;-69
2023/03/17 00:13:24;;;;;;;7.07;3.53;;;;;;;;;;5033382;28;20044;-70
2023/03/17 00:16:02;;;;;;;6.03;2.55;;;;;;;;;;5033448;28;20025;-70
2023/03/17 00:18:30;;;;;;;7.28;3.42;;;;;;;;;;5033605;28;20033;-70
2023/03/17 00:20:56;;;;;;;6.60;3.53;;;;;;;;;;5033461;28;20398;-70
2023/03/17 00:23:23;;;;;;;10.55;2.90;;;;;;;;;;5033346;28;20026;-69
2023/03/17 00:25:52;;;;;;;10.77;3.08;;;;;;;;;;5033460;28;20104;-70
2023/03/17 00:28:21;;;;;;;8.18;3.10;;;;;;;;;;5033084;28;20394;-70
2023/03/17 00:30:48;;;;;;;7.78;2.88;;;;;;;;;;5033370;28;20030;-70
2023/03/17 00:33:18;;;;;;;8.18;3.13;;;;;;;;;;5033211;28;20439;-70
2023/03/17 00:35:45;;;;;;;8.83;3.43;;;;;;;;;;5033068;28;20111;-69
2023/03/17 00:38:15;;;;;;;10.75;3.88;;;;;;;;;;5032394;28;20041;-69
2023/03/17 00:40:41;;;;;;;12.38;3.50;;;;;;;;;;5033132;28;20482;-70
2023/03/17 00:43:08;;;;;;;5.65;2.88;;;;;;;;;;5032896;28;20030;-69
2023/03/17 00:45:34;;;;;;;6.30;3.05;;;;;;;;;;5033231;28;20029;-70
2023/03/17 00:47:59;;;;;;;7.85;3.40;;;;;;;;;;5033090;28;20033;-70
2023/03/17 00:50:27;;;;;;;8.93;3.72;;;;;;;;;;5032883;28;20081;-70
2023/03/17 00:52:55;;;;;;;11.02;3.55;;;;;;;;;;5032952;28;20470;-70
2023/03/17 00:55:22;;;;;;;7.63;3.83;;;;;;;;;;5032981;28;20041;-70
2023/03/17 00:57:48;;;;;;;11.50;4.07;;;;;;;;;;5014957;28;20482;-70
2023/03/17 01:00:26;;;;;;;8.85;3.70;;;;;;;;;;5032885;28;20048;-70
2023/03/17 01:02:54;;;;;;;9.15;3.80;;;;;;;;;;5015049;28;20496;-70
2023/03/17 01:05:21;;;;;;;8.45;2.80;;;;;;;;;;5032890;28;20075;-69
2023/03/17 01:07:52;;;;;;;9.82;3.80;;;;;;;;;;5032732;28;20022;-69
2023/03/17 01:10:24;;;;;;;11.30;3.35;;;;;;;;;;5032816;28;20033;-69
2023/03/17 01:12:50;;;;;;;9.82;3.88;;;;;;;;;;5032599;28;20274;-69
2023/03/17 01:15:16;;;;;;;10.25;4.85;;;;;;;;;;5032593;28;20030;-69
2023/03/17 01:17:42;;;;;;;13.52;3.70;;;;;;;;;;5032849;28;20029;-69
2023/03/17 01:20:15;;;;;;;13.95;3.90;;;;;;;;;;5032587;28;20403;-69
2023/03/17 01:22:41;;;;;;;7.75;4.07;;;;;;;;;;5032616;28;20112;-69
2023/03/17 01:25:07;;;;;;;9.80;4.43;;;;;;;;;;5032516;28;20113;-69
2023/03/17 01:27:35;;;;;;;7.35;3.80;;;;;;;;;;5032392;28;20030;-69
2023/03/17 01:30:03;;;;;;;9.02;4.35;;;;;;;;;;5032536;28;20083;-69
2023/03/17 01:32:28;;;;;;;14.82;4.55;;;;;;;;;;5032496;28;20517;-69
2023/03/17 01:34:54;;;;;;;10.23;3.75;;;;;;;;;;5032421;28;20037;-69
2023/03/17 01:37:20;;;;;;;12.30;4.43;;;;;;;;;;5032355;28;20022;-70
2023/03/17 01:39:46;;;;;;;7.88;3.63;;;;;;;;;;5032421;28;20041;-70
2023/03/17 01:42:12;;;;;;;5.78;2.78;;;;;;;;;;5032227;28;20414;-69
2023/03/17 01:45:00;;;;;;;7.72;2.97;;;;;;;;;;5032337;28;20030;-69
2023/03/17 01:47:30;;;;;;;10.48;4.10;;;;;;;;;;5032404;28;20091;-70
2023/03/17 01:49:59;;;;;;;12.38;4.05;;;;;;;;;;5036346;28;20029;-69
2023/03/17 01:52:26;;;;;;;12.15;4.32;;;;;;;;;;5035841;28;20041;-69
2023/03/17 01:54:59;;;;;;;7.13;2.63;;;;;;;;;;5036034;28;20431;-69
2023/03/17 01:57:53;;;;;;;9.23;3.20;;;;;;;;;;5036147;28;20378;-69
2023/03/17 02:00:21;;;;;;;13.57;4.82;;;;;;;;;;5032943;28;20383;-69
2023/03/17 02:02:49;;;;;;;10.73;4.25;;;;;;;;;;5036109;28;20033;-69
2023/03/17 02:05:19;;;;;;;5.88;2.60;;;;;;;;;;5036108;28;20025;-69
2023/03/17 02:07:45;;;;;;;9.43;3.70;;;;;;;;;;5036164;28;20021;-70
2023/03/17 02:10:14;;;;;;;9.77;3.88;;;;;;;;;;5035718;28;20040;-69
2023/03/17 02:12:42;;;;;;;11.45;4.25;;;;;;;;;;5035969;28;20068;-69
2023/03/17 02:15:10;;;;;;;8.48;4.13;;;;;;;;;;5035894;28;20052;-69
2023/03/17 02:17:36;;;;;;;11.25;5.43;;;;;;;;;;5035753;28;20040;-69
2023/03/17 02:20:16;;;;;;;10.73;3.53;;;;;;;;;;5035494;28;20021;-69
2023/03/17 02:22:49;;;;;;;11.07;3.65;;;;;;;;;;5017956;28;20025;-69
2023/03/17 02:25:16;;;;;;;9.50;4.28;;;;;;;;;;5035408;28;20235;-69
2023/03/17 02:27:45;;;;;;;16.83;5.28;;;;;;;;;;5035653;28;20083;-69
2023/03/17 02:30:13;;;;;;;9.02;3.67;;;;;;;;;;5035519;28;20505;-69
2023/03/17 02:32:39;;;;;;;6.38;3.22;;;;;;;;;;5035528;28;20037;-69
2023/03/17 02:35:07;;;;;;;9.93;4.07;;;;;;;;;;5035540;28;20506;-68
2023/03/17 02:37:33;;;;;;;11.70;4.65;;;;;;;;;;5035283;28;20366;-69
2023/03/17 02:40:00;;;;;;;12.13;4.85;;;;;;;;;;5035188;28;20492;-69
2023/03/17 02:42:26;;;;;;;11.88;4.47;;;;;;;;;;5035370;28;20018;-68
2023/03/17 02:44:52;;;;;;;9.98;4.68;;;;;;;;;;5035363;28;20022;-68
2023/03/17 02:47:17;;;;;;;13.27;4.68;;;;;;;;;;5035224;28;20025;-69
2023/03/17 02:49:44;;;;;;;10.18;4.28;;;;;;;;;;5035215;28;20030;-68
2023/03/17 02:52:09;;;;;;;8.70;3.83;;;;;;;;;;5034839;28;20103;-69
2023/03/17 02:54:35;;;;;;;12.65;5.30;;;;;;;;;;5034922;28;20041;-69
2023/03/17 02:57:00;;;;;;;8.88;4.43;;;;;;;;;;5034958;28;20036;-69
2023/03/17 02:59:26;;;;;;;8.25;4.05;;;;;;;;;;5034012;28;20033;-69
2023/03/17 03:01:52;;;;;;;16.58;6.18;;;;;;;;;;5034963;28;20036;-69
2023/03/17 03:04:19;;;;;;;14.90;5.57;;;;;;;;;;5034910;28;20025;-69
2023/03/17 03:06:45;;;;;;;11.82;6.10;;;;;;;;;;5034956;28;20032;-69
2023/03/17 03:09:11;;;;;;;14.18;4.70;;;;;;;;;;5034436;28;20154;-69
2023/03/17 03:11:37;;;;;;;4.78;2.85;;;;;;;;;;5034793;28;20470;-69
2023/03/17 03:14:03;;;;;;;17.55;5.55;;;;;;;;;;5017011;28;20029;-69
2023/03/17 03:16:29;;;;;;;10.95;5.18;;;;;;;;;;5034606;28;20037;-68
2023/03/17 03:18:54;;;;;;;9.93;4.97;;;;;;;;;;5034778;28;20033;-69
2023/03/17 03:21:21;;;;;;;14.18;3.97;;;;;;;;;;5034600;28;20034;-70
2023/03/17 03:23:46;;;;;;;11.02;4.80;;;;;;;;;;5034369;28;20099;-68
2023/03/17 03:26:12;;;;;;;14.73;5.05;;;;;;;;;;5034672;28;20030;-69
2023/03/17 03:28:37;;;;;;;10.73;5.78;;;;;;;;;;5034515;28;20382;-69
2023/03/17 03:31:03;;;;;;;12.80;5.30;;;;;;;;;;5034617;28;20061;-69
2023/03/17 03:33:28;;;;;;;12.93;4.93;;;;;;;;;;5034448;28;20034;-69
2023/03/17 03:35:54;;;;;;;11.95;6.15;;;;;;;;;;5034282;28;20100;-69
2023/03/17 03:38:19;;;;;;;12.88;4.60;;;;;;;;;;5033995;28;20037;-69
2023/03/17 03:40:45;;;;;;;9.70;4.78;;;;;;;;;;5033978;28;20374;-68
2023/03/17 03:43:10;;;;;;;16.83;4.20;;;;;;;;;;5034133;28;20044;-69
2023/03/17 03:45:36;;;;;;;8.57;4.20;;;;;;;;;;5034128;28;20110;-69
2023/03/17 03:48:02;;;;;;;11.93;5.32;;;;;;;;;;5034167;28;20079;-69
2023/03/17 03:50:27;;;;;;;10.75;4.20;;;;;;;;;;5033905;28;20021;-69
2023/03/17 03:52:52;;;;;;;13.40;5.18;;;;;;;;;;5033680;28;20036;-69
2023/03/17 03:55:18;;;;;;;12.75;5.82;;;;;;;;;;5033988;28;20467;-68
2023/03/17 03:57:43;;;;;;;6.80;3.45;;;;;;;;;;5033948;28;20034;-68
2023/03/17 04:00:12;;;;;;;13.35;6.05;;;;;;;;;;5033814;28;20075;-69
2023/03/17 04:02:39;;;;;;;11.73;4.97;;;;;;;;;;5033853;28;20035;-69
2023/03/17 04:05:06;;;;;;;10.80;4.80;;;;;;;;;;5033596;28;20022;-68
2023/03/17 04:07:31;;;;;;;12.98;6.18;;;;;;;;;;5033752;28;20074;-69
2023/03/17 04:09:58;;;;;;;10.52;5.43;;;;;;;;;;5033654;28;20100;-69
2023/03/17 04:12:24;;;;;;;10.02;4.15;;;;;;;;;;5033602;28;20029;-69
2023/03/17 04:14:50;;;;;;;15.15;5.07;;;;;;;;;;5033543;28;20152;-69
2023/03/17 04:17:15;;;;;;;10.60;5.00;;;;;;;;;;5033442;28;20084;-69
2023/03/17 04:19:41;;;;;;;11.38;5.00;;;;;;;;;;5033393;28;20029;-69
2023/03/17 04:22:07;;;;;;;16.42;5.93;;;;;;;;;;5033462;28;20108;-69
2023/03/17 04:24:34;;;;;;;21.10;6.07;;;;;;;;;;5015780;28;20022;-69
2023/03/17 04:27:00;;;;;;;13.68;5.57;;;;;;;;;;5033385;28;20029;-69
2023/03/17 04:29:26;;;;;;;9.38;3.78;;;;;;;;;;5033276;28;20021;-69
2023/03/17 04:31:51;;;;;;;11.38;5.25;;;;;;;;;;5033127;28;20056;-69
2023/03/17 04:34:18;;;;;;;13.93;5.72;;;;;;;;;;5033056;28;20045;-69
2023/03/17 04:36:45;;;;;;;15.05;5.80;;;;;;;;;;5033141;28;20033;-69
2023/03/17 04:39:11;;;;;;;11.65;5.43;;;;;;;;;;5033099;28;20035;-69
2023/03/17 04:41:37;;;;;;;17.27;5.93;;;;;;;;;;5033047;28;20021;-68
2023/03/17 04:44:02;;;;;;;14.40;5.72;;;;;;;;;;5033095;28;20129;-69
2023/03/17 04:46:28;;;;;;;12.95;5.75;;;;;;;;;;5033082;28;20510;-69
2023/03/17 04:48:55;;;;;;;17.90;5.57;;;;;;;;;;5032818;28;20116;-69
2023/03/17 04:51:20;;;;;;;11.60;5.20;;;;;;;;;;5014980;28;20041;-68
2023/03/17 04:53:47;;;;;;;16.60;5.55;;;;;;;;;;5032691;28;20029;-68
2023/03/17 04:56:13;;;;;;;6.75;3.55;;;;;;;;;;5032935;28;20025;-68
2023/03/17 04:58:38;;;;;;;14.63;5.00;;;;;;;;;;5032810;28;20035;-69
2023/03/17 05:01:05;;;;;;;9.55;3.97;;;;;;;;;;5032763;28;20085;-68
2023/03/17 05:03:32;;;;;;;11.30;5.55;;;;;;;;;;5032551;28;20478;-68
2023/03/17 05:05:57;;;;;;;20.00;6.25;;;;;;;;;;5032695;28;20104;-68
2023/03/17 05:08:24;;;;;;;15.00;5.75;;;;;;;;;;5032794;28;20083;-69
2023/03/17 05:10:50;;;;;;;20.42;6.35;;;;;;;;;;5032781;28;20032;-68
2023/03/17 05:13:17;;;;;;;10.70;4.40;;;;;;;;;;5032549;28;20030;-69
2023/03/17 05:15:47;;;;;;;16.08;6.50;;;;;;;;;;5032573;28;20025;-69
2023/03/17 05:18:13;;;;;;;7.38;3.92;;;;;;;;;;5032390;28;20091;-69
2023/03/17 05:20:39;;;;;;;16.98;5.63;;;;;;;;;;5032516;28;20034;-69
2023/03/17 05:23:04;;;;;;;18.42;6.75;;;;;;;;;;5031734;28;20021;-69
2023/03/17 05:25:29;;;;;;;17.73;5.57;;;;;;;;;;5032592;28;20033;-69
2023/03/17 05:27:55;;;;;;;15.05;6.03;;;;;;;;;;5032436;28;20104;-68
2023/03/17 05:30:20;;;;;;;7.30;3.90;;;;;;;;;;5032535;28;20063;-69
2023/03/17 05:32:46;;;;;;;8.70;3.75;;;;;;;;;;5032249;28;20049;-69
2023/03/17 05:35:12;;;;;;;9.18;4.93;;;;;;;;;;5032535;28;20374;-69
2023/03/17 05:37:37;;;;;;;16.30;6.30;;;;;;;;;;5032392;28;20021;-69
2023/03/17 05:40:03;;;;;;;12.38;6.10;;;;;;;;;;5032276;28;20029;-69
2023/03/17 05:42:29;;;;;;;15.82;6.03;;;;;;;;;;5032304;28;20022;-69
2023/03/17 05:44:54;;;;;;;12.02;5.35;;;;;;;;;;5032420;28;20433;-69
2023/03/17 05:47:19;;;;;;;11.90;4.57;;;;;;;;;;5032069;28;20083;-69
2023/03/17 05:49:45;;;;;;;15.70;5.63;;;;;;;;;;5032159;28;20103;-69
2023/03/17 05:52:11;;;;;;;17.77;4.65;;;;;;;;;;5031862;28;20172;-69
2023/03/17 05:54:36;;;;;;;12.85;5.18;;;;;;;;;;5032330;28;20092;-69
2023/03/17 05:57:02;;;;;;;10.38;6.10;;;;;;;;;;5032228;28;20029;-69
2023/03/17 05:59:28;;;;;;;11.85;5.38;;;;;;;;;;5032133;28;20408;-70
2023/03/17 06:01:54;;;;;;;9.30;4.38;;;;;;;;;;5031911;28;20104;-69
2023/03/17 06:04:19;;;;;;;8.52;4.95;;;;;;;;;;5032029;28;20083;-69
2023/03/17 06:06:45;;;;;;;12.55;6.53;;;;;;;;;;5032082;28;20164;-69
2023/03/17 06:09:10;;;;;;;14.90;6.32;;;;;;;;;;5032048;28;20025;-69
2023/03/17 06:11:37;;;;;;;13.13;4.97;;;;;;;;;;5032155;28;20375;-69
2023/03/17 06:14:02;;;;;;;11.82;5.40;;;;;;;;;;5031978;28;20331;-69
2023/03/17 06:16:31;;;;;;;16.75;5.82;;;;;;;;;;5031828;28;20128;-69
2023/03/17 06:18:56;;;;;;;11.10;5.07;;;;;;;;;;5031997;28;20026;-69
2023/03/17 06:21:22;;;;;;;14.57;5.45;;;;;;;;;;5031865;28;20025;-69
2023/03/17 06:23:47;;;;;;;12.43;4.93;;;;;;;;;;5031897;28;20033;-69
2023/03/17 06:26:13;;;;;;;9.60;4.82;;;;;;;;;;5031938;28;20044;-69
2023/03/17 06:28:38;;;;;;;14.55;4.40;;;;;;;;;;5031909;28;20036;-69
2023/03/17 06:31:04;;;;;;;13.23;5.85;;;;;;;;;;5031811;28;20386;-69
2023/03/17 06:33:29;;;;;;;13.95;6.45;;;;;;;;;;5014203;28;20048;-69
2023/03/17 06:35:57;;;;;;;10.80;4.88;;;;;;;;;;5033801;28;20463;-69
2023/03/17 06:38:23;;;;;;;12.02;5.70;;;;;;;;;;5017502;28;20029;-69
2023/03/17 06:40:49;;;;;;;16.30;6.63;;;;;;;;;;5035096;28;20029;-69
2023/03/17 06:43:16;;;;;;;11.82;6.03;;;;;;;;;;5017386;28;20041;-69
2023/03/17 06:45:41;;;;;;;9.27;4.80;;;;;;;;;;5035110;28;20383;-69
2023/03/17 06:48:07;;;;;;;11.32;4.95;;;;;;;;;;5035143;28;20021;-69
2023/03/17 06:50:32;;;;;;;18.15;6.13;;;;;;;;;;5034841;28;20034;-69
2023/03/17 06:52:58;;;;;;;23.90;7.28;;;;;;;;;;5034911;28;20029;-69
2023/03/17 06:55:23;;;;;;;12.45;5.10;;;;;;;;;;5035101;28;20037;-69
2023/03/17 06:57:49;;;;;;;12.25;5.50;;;;;;;;;;5016878;28;20394;-69
2023/03/17 07:00:14;;;;;;;20.95;8.73;;;;;;;;;;5034485;28;20075;-69
2023/03/17 07:02:41;;;;;;;9.57;5.07;;;;;;;;;;5034842;28;20025;-69
2023/03/17 07:05:07;;;;;;;16.63;6.22;;;;;;;;;;5034816;28;20030;-69
2023/03/17 07:07:34;;;;;;;10.07;5.88;;;;;;;;;;5034895;28;20026;-69
2023/03/17 07:09:59;;;;;;;19.85;6.45;;;;;;;;;;5034449;28;20081;-69
2023/03/17 07:12:26;;;;;;;14.15;6.00;;;;;;;;;;5034754;28;20167;-69
2023/03/17 07:14:51;;;;;;;15.25;5.40;;;;;;;;;;5034262;28;20017;-69
2023/03/17 07:17:18;;;;;;;16.30;6.70;;;;;;;;;;5034647;28;20047;-69
2023/03/17 07:19:44;;;;;;;9.18;3.97;;;;;;;;;;5034714;28;20095;-69
2023/03/17 07:22:10;;;;;;;9.88;4.90;;;;;;;;;;5034635;28;20490;-69
2023/03/17 07:24:36;;;;;;;17.38;6.28;;;;;;;;;;5034479;28;20483;-69
2023/03/17 07:27:01;;;;;;;9.30;4.90;;;;;;;;;;5034479;28;20025;-69
2023/03/17 07:29:28;;;;;;;10.13;5.18;;;;;;;;;;5034000;28;20029;-69
2023/03/17 07:31:53;;;;;;;13.50;5.80;;;;;;;;;;5034355;28;20021;-69
2023/03/17 07:34:19;;;;;;;11.43;5.40;;;;;;;;;;5034548;28;20428;-69
2023/03/17 07:36:45;;;;;;;15.52;5.65;;;;;;;;;;5034345;28;20029;-69
2023/03/17 07:39:11;;;;;;;10.98;5.20;;;;;;;;;;5034287;28;20025;-70
2023/03/17 07:41:37;;;;;;;10.38;5.20;;;;;;;;;;5034203;28;20025;-69
2023/03/17 07:44:02;;;;;;;12.73;5.90;;;;;;;;;;5033945;28;20542;-69
2023/03/17 07:46:28;;;;;;;13.90;4.47;;;;;;;;;;5033452;28;20025;-69
2023/03/17 07:48:54;;;;;;;13.98;6.28;;;;;;;;;;5033960;28;20470;-69
2023/03/17 07:51:22;;;;;;;15.93;5.82;;;;;;;;;;4982981;28;20384;-70
2023/03/17 07:53:49;;;;;;;9.45;4.75;;;;;;;;;;5008560;28;20066;-70
2023/03/17 07:56:15;;;;;;;12.18;5.45;;;;;;;;;;5014317;28;20137;-70
2023/03/17 07:58:41;;;;;;;6.93;4.07;;;;;;;;;;5013833;28;20367;-69
2023/03/17 08:01:07;;;;;;;12.00;5.65;;;;;;;;;;5013367;28;20088;-70
2023/03/17 08:03:33;;;;;;;10.85;5.03;;;;;;;;;;5014015;28;20022;-69
2023/03/17 08:05:59;;;;;;;10.60;5.57;;;;;;;;;;5013948;28;20072;-69
2023/03/17 08:08:27;;;;;;;14.95;5.03;;;;;;;;;;5009298;28;20029;-69
2023/03/17 08:11:00;;;;;;;8.90;4.60;;;;;;;;;;5008316;28;20026;-69
2023/03/17 08:13:25;;;;;;;15.55;6.47;;;;;;;;;;5012596;28;20033;-69
2023/03/17 08:15:51;;;;;;;11.35;4.78;;;;;;;;;;5013362;28;20034;-69
2023/03/17 08:18:17;;;;;;;11.15;6.45;;;;;;;;;;5013394;28;20065;-69
2023/03/17 08:20:43;;;;;;;10.77;4.40;;;;;;;;;;5013460;28;20069;-70
2023/03/17 08:23:08;;;;;;;8.75;4.85;;;;;;;;;;5013252;28;20018;-69
2023/03/17 08:25:34;;;;;;;9.80;4.25;;;;;;;;;;5013145;28;20448;-70
2023/03/17 08:27:59;;;;;;;13.10;5.57;;;;;;;;;;5012910;28;20033;-70
2023/03/17 08:30:25;;;;;;;11.30;5.38;;;;;;;;;;5013219;28;20026;-70
2023/03/17 08:32:52;;;;;;;9.75;5.20;;;;;;;;;;5013206;28;20498;-70
2023/03/17 08:35:18;;;;;;;10.85;4.68;;;;;;;;;;5013047;28;20017;-70
2023/03/17 08:37:46;;;;;;;9.68;4.63;;;;;;;;;;5012943;28;20060;-70
2023/03/17 08:40:15;;;;;;;12.38;6.43;;;;;;;;;;5012921;28;20022;-70
2023/03/17 08:42:46;;;;;;;8.18;4.78;;;;;;;;;;5012829;28;20036;-70
2023/03/17 08:45:13;;;;;;;10.98;5.18;;;;;;;;;;5013041;28;20029;-70
2023/03/17 08:47:39;;;;;;;9.15;4.30;;;;;;;;;;5013039;28;20495;-70
2023/03/17 08:50:12;;;;;;;11.30;4.70;;;;;;;;;;5012802;28;20164;-70
2023/03/17 08:52:38;;;;;;;7.65;4.70;;;;;;;;;;5012783;28;20045;-70
2023/03/17 08:55:04;;;;;;;8.32;4.38;;;;;;;;;;5012765;28;20058;-70
2023/03/17 08:57:29;;;;;;;11.27;4.70;;;;;;;;;;5011934;28;20117;-70
2023/03/17 08:59:55;;;;;;;8.60;4.35;;;;;;;;;;5012676;28;20033;-70
2023/03/17 09:02:21;;;;;;;9.55;4.32;;;;;;;;;;5012715;28;20375;-70
2023/03/17 09:04:47;;;;;;;8.48;4.47;;;;;;;;;;5012579;28;20547;-70
2023/03/17 09:07:12;;;;;;;9.50;4.95;;;;;;;;;;5012471;28;20033;-70
2023/03/17 09:09:38;;;;;;;9.77;4.47;;;;;;;;;;5012468;28;20033;-70
2023/03/17 09:12:05;;;;;;;11.65;5.30;;;;;;;;;;5012564;28;20557;-71
2023/03/17 09:14:32;;;;;;;10.20;4.68;;;;;;;;;;4994981;28;20491;-71
2023/03/17 09:16:57;;;;;;;8.68;4.55;;;;;;;;;;5012588;28;20038;-70
2023/03/17 09:19:23;;;;;;;8.73;4.45;;;;;;;;;;5012609;28;20757;-70
2023/03/17 09:21:51;;;;;;;9.77;4.75;;;;;;;;;;5012342;28;20479;-70
2023/03/17 09:24:18;;;;;;;9.55;4.70;;;;;;;;;;5012343;28;20033;-71
2023/03/17 09:26:44;;;;;;;10.40;4.95;;;;;;;;;;5012371;28;20054;-70
2023/03/17 09:29:09;;;;;;;6.88;4.18;;;;;;;;;;5012455;28;20037;-70
2023/03/17 09:31:35;;;;;;;11.50;4.05;;;;;;;;;;4994805;28;20030;-70
2023/03/17 09:34:03;;;;;;;10.25;4.00;;;;;;;;;;5012237;28;20033;-70
2023/03/17 09:36:31;;;;;;;11.63;5.43;;;;;;;;;;5018687;28;20043;-69
2023/03/17 09:38:56;;;;;;;12.50;5.03;;;;;;;;;;5031923;28;20069;-69
2023/03/17 09:41:42;;;;;;;6.88;4.47;;;;;;;;;;5032137;28;20118;-69
2023/03/17 09:44:28;;;;;;;8.38;4.50;;;;;;;;;;5032054;28;20088;-69
2023/03/17 09:47:28;;;;;;;8.88;4.60;;;;;;;;;;5032071;28;20057;-69
2023/03/17 09:50:03;;;;;;;11.70;4.95;;;;;;;;;;5031763;28;20096;-69
2023/03/17 09:52:33;;;;;;;9.65;5.03;;;;;;;;;;5029990;28;20522;-69
2023/03/17 09:54:59;;;;;;;12.48;4.78;;;;;;;;;;5031960;28;20509;-70
2023/03/17 09:57:36;;;;;;;8.52;4.32;;;;;;;;;;5031911;28;20030;-70
2023/03/17 10:00:16;;;;;;;12.30;4.72;;;;;;;;;;5031669;28;20487;-70
2023/03/17 10:02:42;;;;;;;9.57;4.55;;;;;;;;;;5014274;28;20428;-70
2023/03/17 10:05:20;;;;;;;10.90;4.97;;;;;;;;;;5014108;28;20033;-70
2023/03/17 10:08:11;;;;;;;8.77;4.32;;;;;;;;;;5031682;28;20025;-70
2023/03/17 10:10:50;;;;;;;7.55;4.00;;;;;;;;;;5035306;28;20100;-70
2023/03/17 10:13:31;;;;;;;9.32;4.65;;;;;;;;;;5017889;28;20018;-70
2023/03/17 10:15:56;;;;;;;;;;;;;;;;;;5035872;28;20104;-70
2023/03/17 10:18:25;;;;;;;6.85;3.40;;;;;;;;;;5017683;28;20357;-70
2023/03/17 10:20:58;;;;;;;8.40;4.03;;;;;;;;;;5035295;28;20170;-70
2023/03/17 10:23:28;;;;;;;9.65;4.57;;;;;;;;;;5035141;28;20036;-70
2023/03/17 10:25:56;;;;;;;9.60;4.72;;;;;;;;;;5035317;28;20022;-70
2023/03/17 10:28:27;;;;;;;11.93;4.55;;;;;;;;;;5017864;28;20037;-70
2023/03/17 10:31:14;;;;;;;6.15;3.50;;;;;;;;;;5035452;28;20026;-71
2023/03/17 10:33:41;;;;;;;5.32;3.42;;;;;;;;;;5035449;28;20037;-70
2023/03/17 10:36:08;;;;;;;7.65;4.10;;;;;;;;;;5035132;28;20025;-70
2023/03/17 10:38:34;;;;;;;11.35;4.55;;;;;;;;;;5034817;28;20112;-70
2023/03/17 10:41:07;;;;;;;7.90;4.40;;;;;;;;;;5035089;28;20060;-70
2023/03/17 10:43:50;;;;;;;12.00;5.07;;;;;;;;;;5035087;28;20100;-71
2023/03/17 10:46:25;;;;;;;8.32;4.95;;;;;;;;;;5035062;28;20155;-70
2023/03/17 10:48:56;;;;;;;12.00;5.00;;;;;;;;;;5034947;28;20036;-71
2023/03/17 10:51:34;;;;;;;5.97;3.45;;;;;;;;;;5034344;28;20060;-70
2023/03/17 10:54:06;;;;;;;7.97;4.70;;;;;;;;;;5018393;28;20025;-70
2023/03/17 10:56:35;;;;;;;9.23;4.47;;;;;;;;;;5015124;28;20107;-70
2023/03/17 10:59:31;;;;;;;7.95;4.28;;;;;;;;;;5014936;28;20030;-70
2023/03/17 11:02:04;;;;;;;8.13;3.92;;;;;;;;;;5010453;28;20038;-71
2023/03/17 11:04:41;;;;;;;9.57;4.18;;;;;;;;;;5014969;28;20028;-71
2023/03/17 11:07:20;;;;;;;9.23;4.85;;;;;;;;;;5014409;28;20026;-73
2023/03/17 11:09:50;;;;;;;9.18;4.70;;;;;;;;;;5014567;28;20108;-72
2023/03/17 11:12:24;;;;;;;;;;;;;;;;;;5015240;28;20026;-71
2023/03/17 11:14:58;;;;;;;6.28;4.03;;;;;;;;;;5014691;28;20282;-71
2023/03/17 11:17:51;;;;;;;8.02;4.30;;;;;;;;;;5014665;28;20056;-71
2023/03/17 11:20:38;;;;;;;6.35;3.58;;;;;;;;;;5013708;28;20034;-71
2023/03/17 11:23:11;;;;;;;9.63;3.83;;;;;;;;;;5014436;28;20049;-72
2023/03/17 11:25:41;;;;;;;9.25;4.28;;;;;;;;;;5014392;28;20412;-71
2023/03/17 11:28:18;;;;;;;5.68;3.08;;;;;;;;;;5014147;28;20025;-70
2023/03/17 11:31:08;;;;;;;7.93;4.20;;;;;;;;;;5014227;28;20038;-69
2023/03/17 11:33:55;;;;;;;10.07;4.07;;;;;;;;;;5014409;28;20029;-70
2023/03/17 11:36:33;;;;;;;6.95;4.13;;;;;;;;;;5014010;28;20105;-71
2023/03/17 11:39:10;;;;;;;8.60;3.85;;;;;;;;;;5014122;28;20491;-70
2023/03/17 11:41:45;;;;;;;8.55;4.00;;;;;;;;;;5014141;28;20113;-70
2023/03/17 11:44:37;;;;;;;6.32;3.70;;;;;;;;;;5014081;28;20080;-70
2023/03/17 11:47:26;;;;;;;8.00;3.25;;;;;;;;;;5006859;28;20053;-70
2023/03/17 11:49:58;;;;;;;6.28;3.60;;;;;;;;;;5013552;28;20026;-70
2023/03/17 11:52:31;;;;;;;5.60;2.90;;;;;;;;;;5016845;28;20049;-70
2023/03/17 11:55:22;;;;;;;9.00;4.35;;;;;;;;;;5033765;28;20025;-70
2023/03/17 11:57:56;;;;;;;11.02;4.18;;;;;;;;;;5033477;28;20040;-72
2023/03/17 12:00:22;;;;;;;10.82;3.83;;;;;;;;;;5033475;28;20030;-70
2023/03/17 12:02:52;;;;;;;5.13;2.90;;;;;;;;;;5033378;28;20079;-70
2023/03/17 12:05:26;;;;;;;7.37;3.97;;;;;;;;;;5033098;28;20027;-69
2023/03/17 12:07:57;;;;;;;5.97;2.97;;;;;;;;;;5033151;28;20298;-72
2023/03/17 12:10:38;;;;;;;6.72;3.47;;;;;;;;;;5033424;28;20075;-70
2023/03/17 12:13:29;;;;;;;5.70;3.22;;;;;;;;;;5033349;28;20505;-70
2023/03/17 12:16:09;;;;;;;10.77;3.65;;;;;;;;;;5019979;28;20371;-72
2023/03/17 12:18:41;;;;;;;9.48;4.00;;;;;;;;;;5033049;28;20033;-71
2023/03/17 12:21:13;;;;;;;6.75;4.13;;;;;;;;;;5033102;28;20029;-72
2023/03/17 12:23:59;;;;;;;5.60;3.17;;;;;;;;;;5033121;28;20034;-71
2023/03/17 12:26:39;;;;;;;6.88;2.88;;;;;;;;;;5033258;28;20021;-71
2023/03/17 12:29:50;;;;;;;6.72;3.17;;;;;;;;;;5033142;28;20128;-71
2023/03/17 12:32:39;;;;;;;11.35;4.18;;;;;;;;;;4933634;29;20040;-71
2023/03/17 12:35:30;;;;;;;6.47;3.55;;;;;;;;;;4933768;29;20601;-71
2023/03/17 12:37:58;;;;;;;7.85;3.75;;;;;;;;;;4928161;29;20120;-71
2023/03/17 12:41:08;;;;;;;11.82;3.63;;;;;;;;;;4933498;29;20032;-71
2023/03/17 12:43:39;;;;;;;5.05;2.75;;;;;;;;;;4933476;29;20569;-71
2023/03/17 12:46:41;;;;;;;8.07;3.50;;;;;;;;;;4933251;29;20090;-73
2023/03/17 12:49:21;;;;;;;13.20;4.20;;;;;;;;;;4932880;29;20039;-71
2023/03/17 12:52:05;;;;;;;8.32;3.80;;;;;;;;;;4933128;29;20156;-71
2023/03/17 12:54:36;;;;;;;6.05;3.10;;;;;;;;;;4933351;29;20047;-70
2023/03/17 12:57:29;;;;;;;10.30;3.63;;;;;;;;;;4933235;29;20043;-71
2023/03/17 13:00:25;;;;;;;10.23;3.70;;;;;;;;;;4933016;29;20028;-71
2023/03/17 13:03:12;;;;;;;6.22;3.55;;;;;;;;;;4923402;29;20042;-71
2023/03/17 13:05:38;;;;;;;6.18;3.03;;;;;;;;;;4933190;29;20024;-71
2023/03/17 13:08:07;;;;;;;9.63;4.07;;;;;;;;;;4954531;28;20133;-71
2023/03/17 13:10:43;;;;;;;6.55;3.22;;;;;;;;;;5032158;28;20147;-71
2023/03/17 13:13:29;;;;;;;8.82;3.75;;;;;;;;;;5032422;28;20032;-71
2023/03/17 13:15:57;;;;;;;8.80;3.60;;;;;;;;;;5032170;28;20533;-70
2023/03/17 13:18:44;;;;;;;7.65;3.30;;;;;;;;;;5031997;28;20486;-71
2023/03/17 13:21:13;;;;;;;7.68;4.28;;;;;;;;;;5032122;28;20022;-71
2023/03/17 13:23:46;;;;;;;8.32;3.55;;;;;;;;;;5014463;28;20022;-71
2023/03/17 13:26:16;;;;;;;9.93;3.40;;;;;;;;;;5032356;28;20025;-71
2023/03/17 13:28:46;;;;;;;7.28;3.58;;;;;;;;;;5032313;28;20116;-71
2023/03/17 13:31:32;;;;;;;7.72;3.95;;;;;;;;;;5027967;28;20049;-71
2023/03/17 13:34:16;;;;;;;8.63;4.03;;;;;;;;;;5011954;28;20026;-71
2023/03/17 13:37:12;;;;;;;6.10;3.80;;;;;;;;;;5011791;28;20098;-71
2023/03/17 13:40:06;;;;;;;7.07;3.83;;;;;;;;;;4994361;28;20479;-71
2023/03/17 13:43:00;;;;;;;8.13;3.92;;;;;;;;;;5012337;28;20061;-71
2023/03/17 13:45:46;;;;;;;11.57;3.50;;;;;;;;;;4915746;29;20052;-71
2023/03/17 13:48:28;;;;;;;9.23;4.15;;;;;;;;;;4917596;29;20032;-69
2023/03/17 13:51:19;;;;;;;7.70;3.42;;;;;;;;;;4917425;29;20048;-70
2023/03/17 13:53:52;;;;;;;6.68;2.70;;;;;;;;;;4908600;29;20126;-70
2023/03/17 13:56:22;;;;;;;9.82;4.10;;;;;;;;;;4917372;29;20044;-70
2023/03/17 13:58:51;;;;;;;16.52;5.45;;;;;;;;;;4917320;29;20043;-70
2023/03/17 14:01:17;;;;;;;8.02;3.05;;;;;;;;;;4917098;29;20115;-69
2023/03/17 14:03:47;;;;;;;10.63;4.38;;;;;;;;;;4917193;29;20068;-69
2023/03/17 14:06:14;;;;;;;8.88;3.80;;;;;;;;;;4917039;29;20133;-70
2023/03/17 14:08:47;;;;;;;10.85;3.72;;;;;;;;;;4917297;29;20032;-70
2023/03/17 14:11:31;;;;;;;6.20;3.17;;;;;;;;;;4917238;29;20065;-70
2023/03/17 14:14:21;;;;;;;9.63;3.80;;;;;;;;;;4917120;29;20065;-70
2023/03/17 14:16:59;;;;;;;6.68;3.20;;;;;;;;;;4917018;29;20068;-70
2023/03/17 14:19:27;;;;;;;7.60;3.65;;;;;;;;;;4916971;29;20032;-70
2023/03/17 14:21:54;;;;;;;7.90;3.33;;;;;;;;;;4925534;28;20030;-70
2023/03/17 14:24:23;;;;;;;7.93;3.85;;;;;;;;;;4996049;28;20022;-71
2023/03/17 14:26:49;;;;;;;9.43;3.97;;;;;;;;;;4995942;28;20042;-71
2023/03/17 14:29:18;;;;;;;10.35;4.18;;;;;;;;;;4995781;28;20105;-70
2023/03/17 14:31:57;;;;;;;12.90;3.95;;;;;;;;;;4995995;28;20022;-70
2023/03/17 14:34:23;;;;;;;10.30;3.80;;;;;;;;;;4995912;28;20115;-71
2023/03/17 14:36:50;;;;;;;11.27;3.63;;;;;;;;;;4995843;28;20031;-70
2023/03/17 14:39:24;;;;;;;9.60;3.55;;;;;;;;;;4995720;28;20383;-70
2023/03/17 14:42:03;;;;;;;6.65;3.67;;;;;;;;;;4995557;28;20033;-70
2023/03/17 14:44:40;;;;;;;12.25;4.53;;;;;;;;;;4995472;28;20117;-70
2023/03/17 14:47:20;;;;;;;9.27;3.70;;;;;;;;;;4998810;28;20025;-70
2023/03/17 14:49:46;;;;;;;7.73;3.53;;;;;;;;;;5014572;28;20022;-70
2023/03/17 14:52:22;;;;;;;6.18;3.42;;;;;;;;;;4996741;28;20046;-69
2023/03/17 14:54:51;;;;;;;8.43;3.65;;;;;;;;;;5014840;28;20057;-70